Time;durP1;ratioP1;P1;durP2;ratioP2;P2;SDS_P1;SDS_P2;PMS_P1;PMS_P2;Temp;Humidity;BMP_temperature;BMP_pressure;BME280_temperature;BME280_humidity;BME280_pressure;Samples;Min_cycle;Max_cycle;Signal;HPM_P1;HPM_P2
2023/02/02 00:01:55;;;;;;;6.65;2.80;;;3.10;99.90;;;;;;5025257;28;20037;-35
2023/02/02 00:04:34;;;;;;;7.75;3.28;;;3.10;99.90;;;;;;5028815;28;20590;-35
2023/02/02 00:07:04;;;;;;;6.50;2.50;;;3.10;99.90;;;;;;5029464;28;20072;-34
2023/02/02 00:09:32;;;;;;;2.95;2.65;;;3.10;99.90;;;;;;5026700;28;20047;-35
2023/02/02 00:12:00;;;;;;;11.85;4.22;;;3.10;99.90;;;;;;5028187;28;20367;-35
2023/02/02 00:14:28;;;;;;;13.18;3.25;;;3.20;99.90;;;;;;5029191;28;20041;-35
2023/02/02 00:16:56;;;;;;;8.02;3.33;;;3.20;99.90;;;;;;5028373;28;20049;-35
2023/02/02 00:19:27;;;;;;;3.90;2.35;;;3.30;99.90;;;;;;5028991;28;20053;-35
2023/02/02 00:21:54;;;;;;;3.00;2.50;;;3.30;99.90;;;;;;5027109;28;20049;-35
2023/02/02 00:24:22;;;;;;;6.05;2.67;;;3.40;99.90;;;;;;5023745;28;20060;-35
2023/02/02 00:26:55;;;;;;;8.68;2.85;;;3.40;99.90;;;;;;5026972;28;20056;-34
2023/02/02 00:29:26;;;;;;;8.27;3.15;;;3.30;99.90;;;;;;5028514;28;20825;-36
2023/02/02 00:31:55;;;;;;;9.38;2.10;;;3.30;99.90;;;;;;5026474;28;20056;-34
2023/02/02 00:34:22;;;;;;;4.20;2.20;;;3.30;99.90;;;;;;5025669;28;20056;-35
2023/02/02 00:36:50;;;;;;;7.10;3.05;;;3.30;99.90;;;;;;5028811;28;20052;-35
2023/02/02 00:39:26;;;;;;;4.47;2.60;;;3.30;99.90;;;;;;5027136;28;20090;-35
2023/02/02 00:41:54;;;;;;;3.50;2.03;;;3.20;99.90;;;;;;5022716;28;20057;-35
2023/02/02 00:47:08;;;;;;;5.55;2.95;;;3.20;99.90;;;;;;5024909;28;20050;-35
2023/02/02 00:49:36;;;;;;;2.40;2.17;;;3.10;99.90;;;;;;5027640;28;20050;-36
2023/02/02 00:52:03;;;;;;;11.05;3.58;;;3.00;99.90;;;;;;5026948;28;20565;-35
2023/02/02 00:54:31;;;;;;;8.57;2.58;;;3.00;99.90;;;;;;5026113;28;20061;-35
2023/02/02 00:56:58;;;;;;;3.90;3.28;;;3.00;99.90;;;;;;5027915;28;20341;-35
2023/02/02 00:59:26;;;;;;;5.63;2.92;;;3.00;99.90;;;;;;5027698;28;20544;-35
2023/02/02 01:01:53;;;;;;;6.80;2.45;;;3.10;99.90;;;;;;5027494;28;20694;-35
2023/02/02 01:04:21;;;;;;;3.35;2.55;;;3.00;99.90;;;;;;5027706;28;20045;-35
2023/02/02 01:06:48;;;;;;;11.73;3.72;;;3.00;99.90;;;;;;5028300;28;20045;-35
2023/02/02 01:09:16;;;;;;;7.22;3.17;;;2.90;99.90;;;;;;5024347;28;20056;-35
2023/02/02 01:11:43;;;;;;;4.30;2.50;;;2.90;99.90;;;;;;5027659;28;20045;-38
2023/02/02 01:14:11;;;;;;;8.13;2.95;;;3.00;99.90;;;;;;5026754;28;20064;-35
2023/02/02 01:16:38;;;;;;;3.60;2.13;;;3.00;99.90;;;;;;5027616;28;20037;-35
2023/02/02 01:19:06;;;;;;;8.32;3.33;;;3.00;99.90;;;;;;5026423;28;20399;-35
2023/02/02 01:21:33;;;;;;;5.22;2.50;;;3.00;99.90;;;;;;5026102;28;20551;-35
2023/02/02 01:24:01;;;;;;;2.58;2.38;;;3.10;99.90;;;;;;5025683;28;20057;-35
2023/02/02 01:26:29;;;;;;;4.25;2.15;;;3.00;99.90;;;;;;5027203;28;20046;-35
2023/02/02 01:28:57;;;;;;;5.68;2.58;;;3.00;99.90;;;;;;5025776;28;20053;-35
2023/02/02 01:31:25;;;;;;;4.22;2.65;;;3.10;99.90;;;;;;5027819;28;20068;-35
2023/02/02 01:33:53;;;;;;;4.25;2.10;;;3.10;99.90;;;;;;5026525;28;20411;-35
2023/02/02 01:36:22;;;;;;;7.53;2.03;;;3.10;99.90;;;;;;5027258;28;20049;-35
2023/02/02 01:38:50;;;;;;;9.50;3.20;;;3.10;99.90;;;;;;5024874;28;20058;-34
2023/02/02 01:41:21;;;;;;;4.20;2.88;;;3.20;99.90;;;;;;5023627;28;20406;-35
2023/02/02 01:43:53;;;;;;;11.50;3.78;;;3.20;99.90;;;;;;5026249;28;20053;-35
2023/02/02 01:46:33;;;;;;;4.47;2.40;;;3.20;99.90;;;;;;5026717;28;20060;-35
2023/02/02 01:49:13;;;;;;;3.60;2.65;;;3.10;99.90;;;;;;5026944;28;20073;-35
2023/02/02 01:51:42;;;;;;;7.40;2.20;;;3.00;99.90;;;;;;5027093;28;20057;-35
2023/02/02 01:54:17;;;;;;;3.50;2.20;;;2.90;99.90;;;;;;5023406;28;20064;-35
2023/02/02 01:56:57;;;;;;;2.40;2.20;;;2.90;99.90;;;;;;5022905;28;20061;-35
2023/02/02 01:59:28;;;;;;;3.20;2.80;;;2.90;99.90;;;;;;5027613;28;20057;-36
2023/02/02 02:01:55;;;;;;;2.72;2.58;;;3.00;99.90;;;;;;5026047;28;20518;-35
2023/02/02 02:04:25;;;;;;;6.22;2.10;;;3.00;99.90;;;;;;5027011;28;20494;-41
2023/02/02 02:06:53;;;;;;;8.07;2.85;;;3.00;99.90;;;;;;5027714;28;20517;-35
2023/02/02 02:09:21;;;;;;;4.78;2.45;;;3.10;99.90;;;;;;5023457;28;20050;-35
2023/02/02 02:11:48;;;;;;;2.35;2.25;;;3.10;99.90;;;;;;5027190;28;20053;-35
2023/02/02 02:17:32;;;;;;;7.82;2.80;;;3.20;99.90;;;;;;5025658;28;20064;-36
2023/02/02 02:26:32;;;;;;;4.78;2.72;;;3.20;99.90;;;;;;5024678;28;20502;-35
2023/02/02 02:29:25;;;;;;;6.03;3.03;;;3.30;99.90;;;;;;5017109;28;20041;-35
2023/02/02 02:32:00;;;;;;;3.75;2.65;;;3.40;99.90;;;;;;5006435;28;20056;-35
2023/02/02 02:34:44;;;;;;;6.32;2.90;;;3.40;99.90;;;;;;5023358;28;20133;-35
2023/02/02 02:37:29;;;;;;;8.77;2.30;;;3.40;99.90;;;;;;5022814;28;20046;-35
2023/02/02 02:40:08;;;;;;;7.05;2.97;;;3.40;99.90;;;;;;5018956;28;20049;-34
2023/02/02 02:42:40;;;;;;;3.47;2.97;;;3.40;99.90;;;;;;5026912;28;20057;-35
2023/02/02 02:45:11;;;;;;;7.05;3.17;;;3.40;99.90;;;;;;5024782;28;20042;-35
2023/02/02 02:47:41;;;;;;;7.05;2.25;;;3.40;99.90;;;;;;5024630;28;20048;-35
2023/02/02 02:50:09;;;;;;;3.50;2.20;;;3.40;99.90;;;;;;5024732;28;20054;-35
2023/02/02 02:52:38;;;;;;;3.95;2.72;;;3.30;99.90;;;;;;5026374;28;20037;-35
2023/02/02 02:55:09;;;;;;;3.63;1.92;;;3.40;99.90;;;;;;5024901;28;20052;-35
2023/02/02 02:57:53;;;;;;;8.98;3.03;;;3.30;99.90;;;;;;5023533;28;20053;-35
2023/02/02 03:00:20;;;;;;;2.47;2.25;;;3.30;99.90;;;;;;5029487;28;20420;-36
2023/02/02 03:03:08;;;;;;;3.60;2.13;;;3.30;99.90;;;;;;5030133;28;20050;-36
2023/02/02 03:05:44;;;;;;;5.82;2.80;;;3.30;99.90;;;;;;5025646;28;20050;-35
2023/02/02 03:08:47;;;;;;;4.07;1.92;;;3.30;99.90;;;;;;5029152;28;20470;-35
2023/02/02 03:11:16;;;;;;;4.63;2.35;;;3.40;99.90;;;;;;5028970;28;20497;-36
2023/02/02 03:13:44;;;;;;;9.68;2.10;;;3.40;99.90;;;;;;5028742;28;20041;-36
2023/02/02 03:16:13;;;;;;;2.78;2.58;;;3.40;99.90;;;;;;5030333;28;20069;-36
2023/02/02 03:18:41;;;;;;;2.25;2.15;;;3.30;99.90;;;;;;5030166;28;20046;-35
2023/02/02 03:21:11;;;;;;;5.85;2.63;;;3.30;99.90;;;;;;5029860;28;20577;-35
2023/02/02 03:23:38;;;;;;;5.07;2.42;;;3.40;99.90;;;;;;5028072;28;20053;-36
2023/02/02 03:26:06;;;;;;;3.05;2.58;;;3.40;99.90;;;;;;5028851;28;20168;-35
2023/02/02 03:28:34;;;;;;;4.80;2.63;;;3.40;99.90;;;;;;5029918;28;20061;-35
2023/02/02 03:31:02;;;;;;;3.13;2.20;;;3.40;99.90;;;;;;5025507;28;20057;-36
2023/02/02 03:33:34;;;;;;;6.65;2.55;;;3.30;99.90;;;;;;5028254;28;20053;-35
2023/02/02 03:36:01;;;;;;;3.05;2.28;;;3.30;99.90;;;;;;5024488;28;20045;-35
2023/02/02 03:38:29;;;;;;;3.10;2.72;;;3.40;99.90;;;;;;5028867;28;20072;-36
2023/02/02 03:40:56;;;;;;;10.93;3.58;;;3.40;99.90;;;;;;5024081;28;20041;-36
2023/02/02 03:43:24;;;;;;;5.72;2.92;;;3.30;99.90;;;;;;5028739;28;20502;-35
2023/02/02 03:46:03;;;;;;;7.78;2.72;;;3.20;99.90;;;;;;5028718;28;20057;-36
2023/02/02 03:48:35;;;;;;;5.78;3.30;;;3.20;99.90;;;;;;5029723;28;20061;-36
2023/02/02 03:51:08;;;;;;;2.17;1.98;;;3.20;99.90;;;;;;5029603;28;20053;-36
2023/02/02 03:53:35;;;;;;;5.13;2.55;;;3.20;99.90;;;;;;5026638;28;20103;-35
2023/02/02 03:56:03;;;;;;;6.05;2.70;;;3.20;99.90;;;;;;5028659;28;20061;-35
2023/02/02 03:58:30;;;;;;;5.00;2.47;;;3.20;99.90;;;;;;5029769;28;20065;-35
2023/02/02 04:01:06;;;;;;;5.78;2.50;;;3.30;99.90;;;;;;5029803;28;20044;-35
2023/02/02 04:03:33;;;;;;;3.60;2.28;;;3.40;99.90;;;;;;5023979;28;20049;-35
2023/02/02 04:06:01;;;;;;;5.32;2.05;;;3.40;99.90;;;;;;5028288;28;20049;-35
2023/02/02 04:08:30;;;;;;;10.52;2.22;;;3.40;99.90;;;;;;5024255;28;20041;-35
2023/02/02 04:10:58;;;;;;;12.30;3.35;;;3.30;99.90;;;;;;5027229;28;20054;-35
2023/02/02 04:13:26;;;;;;;6.28;3.20;;;3.20;99.90;;;;;;5028536;28;20462;-35
2023/02/02 04:15:58;;;;;;;3.88;2.75;;;3.10;99.90;;;;;;5029430;28;20068;-36
2023/02/02 04:18:27;;;;;;;4.30;2.53;;;3.10;99.90;;;;;;5028311;28;20410;-35
2023/02/02 04:21:00;;;;;;;6.07;3.50;;;3.10;99.90;;;;;;5025956;28;20041;-35
2023/02/02 04:23:28;;;;;;;5.93;3.45;;;3.20;99.90;;;;;;5024821;28;20045;-35
2023/02/02 04:25:56;;;;;;;4.65;2.08;;;3.20;99.90;;;;;;5027407;28;20501;-35
2023/02/02 04:28:25;;;;;;;8.18;2.53;;;3.30;99.90;;;;;;5028672;28;20053;-35
2023/02/02 04:30:54;;;;;;;5.97;2.80;;;3.30;99.90;;;;;;5028821;28;20065;-35
2023/02/02 04:33:24;;;;;;;4.18;2.35;;;3.30;99.90;;;;;;5026461;28;20044;-35
2023/02/02 04:35:51;;;;;;;3.60;2.05;;;3.30;99.90;;;;;;5028826;28;20116;-36
2023/02/02 04:38:19;;;;;;;3.78;2.03;;;3.30;99.90;;;;;;5026981;28;20098;-35
2023/02/02 04:40:47;;;;;;;3.42;3.13;;;3.30;99.90;;;;;;5024668;28;20089;-35
2023/02/02 04:43:15;;;;;;;3.20;2.03;;;3.30;99.90;;;;;;5025802;28;20084;-36
2023/02/02 04:45:43;;;;;;;1.83;1.73;;;3.30;99.90;;;;;;5028716;28;20072;-35
2023/02/02 04:48:11;;;;;;;3.08;1.98;;;3.40;99.90;;;;;;5027318;28;20053;-35
2023/02/02 04:50:39;;;;;;;4.68;2.15;;;3.30;99.90;;;;;;5008876;28;20080;-35
2023/02/02 04:53:07;;;;;;;8.60;2.72;;;3.40;99.90;;;;;;5006332;28;20093;-35
2023/02/02 04:55:37;;;;;;;2.55;2.35;;;3.40;99.90;;;;;;5002154;28;20060;-36
2023/02/02 04:58:05;;;;;;;3.53;2.67;;;3.20;99.90;;;;;;5007950;28;20061;-35
2023/02/02 05:00:33;;;;;;;5.30;2.22;;;3.00;99.90;;;;;;5002825;28;20060;-35
2023/02/02 05:03:00;;;;;;;11.30;2.65;;;3.00;99.90;;;;;;5007844;28;20046;-35
2023/02/02 05:05:28;;;;;;;6.35;2.65;;;3.00;99.90;;;;;;5007945;28;20449;-35
2023/02/02 05:07:55;;;;;;;4.45;3.42;;;3.00;99.90;;;;;;5007711;28;20057;-35
2023/02/02 05:10:23;;;;;;;5.95;2.67;;;2.90;99.90;;;;;;5001838;28;20426;-35
2023/02/02 05:12:54;;;;;;;2.70;2.20;;;3.00;99.90;;;;;;5007220;28;20057;-35
2023/02/02 05:15:21;;;;;;;5.47;2.42;;;3.10;99.90;;;;;;5008027;28;20517;-35
2023/02/02 05:17:50;;;;;;;4.25;2.63;;;3.10;99.90;;;;;;5004909;28;20049;-35
2023/02/02 05:20:17;;;;;;;7.60;2.70;;;3.20;99.90;;;;;;5005729;28;20045;-35
2023/02/02 05:22:48;;;;;;;5.57;2.72;;;3.20;99.90;;;;;;5006858;28;20054;-35
2023/02/02 05:25:16;;;;;;;3.47;2.47;;;3.30;99.90;;;;;;5004007;28;20426;-35
2023/02/02 05:27:45;;;;;;;7.68;2.42;;;3.20;99.90;;;;;;5008577;28;20414;-34
2023/02/02 05:30:13;;;;;;;5.88;2.45;;;3.20;99.90;;;;;;5007404;28;20050;-34
2023/02/02 05:32:40;;;;;;;3.25;3.00;;;3.30;99.90;;;;;;5007035;28;20057;-35
2023/02/02 05:35:09;;;;;;;8.07;2.58;;;3.30;99.90;;;;;;5008189;28;20616;-36
2023/02/02 05:37:36;;;;;;;1.88;1.45;;;3.30;99.90;;;;;;5005243;28;20499;-36
2023/02/02 05:40:04;;;;;;;6.20;1.60;;;3.40;99.90;;;;;;5006277;28;20049;-35
2023/02/02 05:42:32;;;;;;;3.47;2.75;;;3.30;99.90;;;;;;5007492;28;20050;-35
2023/02/02 05:44:59;;;;;;;5.88;2.50;;;3.30;99.90;;;;;;5007219;28;20049;-35
2023/02/02 05:47:27;;;;;;;4.28;2.83;;;3.30;99.90;;;;;;5005809;28;20050;-36
2023/02/02 05:49:55;;;;;;;11.55;3.10;;;3.40;99.90;;;;;;5020547;28;20063;-36
2023/02/02 05:52:24;;;;;;;4.10;2.70;;;3.30;99.90;;;;;;5025817;28;20402;-35
2023/02/02 05:54:52;;;;;;;2.97;2.05;;;3.40;99.90;;;;;;5025434;28;20410;-35
2023/02/02 05:57:19;;;;;;;6.65;2.47;;;3.30;99.90;;;;;;5026398;28;20053;-37
2023/02/02 05:59:47;;;;;;;2.50;2.30;;;3.30;99.90;;;;;;5027317;28;20053;-34
2023/02/02 06:02:15;;;;;;;4.68;3.20;;;3.30;99.90;;;;;;5026486;28;20041;-34
2023/02/02 06:04:42;;;;;;;2.38;2.17;;;3.30;99.90;;;;;;5027170;28;20073;-35
2023/02/02 06:07:10;;;;;;;4.72;2.30;;;3.30;99.90;;;;;;5027317;28;20041;-35
2023/02/02 06:09:37;;;;;;;12.10;2.53;;;3.30;99.90;;;;;;5025380;28;20060;-35
2023/02/02 06:12:05;;;;;;;6.78;2.83;;;3.30;99.90;;;;;;5026511;28;20045;-35
2023/02/02 06:14:32;;;;;;;5.90;2.30;;;3.40;99.90;;;;;;5025593;28;20046;-35
2023/02/02 06:17:00;;;;;;;2.92;1.85;;;3.40;99.90;;;;;;5025337;28;20056;-37
2023/02/02 06:19:28;;;;;;;9.55;2.45;;;3.40;99.90;;;;;;5025959;28;20058;-36
2023/02/02 06:21:55;;;;;;;2.13;1.90;;;3.30;99.90;;;;;;5024849;28;20379;-35
2023/02/02 06:24:23;;;;;;;4.60;2.28;;;3.30;99.90;;;;;;5024365;28;20686;-35
2023/02/02 06:26:50;;;;;;;2.25;2.05;;;3.20;99.90;;;;;;5027449;28;20057;-35
2023/02/02 06:29:18;;;;;;;3.75;2.20;;;3.20;99.90;;;;;;5026446;28;20049;-35
2023/02/02 06:31:45;;;;;;;2.17;2.05;;;3.20;99.90;;;;;;5028223;28;20053;-35
2023/02/02 06:34:13;;;;;;;6.13;2.22;;;3.20;99.90;;;;;;5028826;28;20049;-36
2023/02/02 06:36:41;;;;;;;1.20;1.20;;;3.20;99.90;;;;;;5029607;28;20045;-35
2023/02/02 06:39:09;;;;;;;3.60;2.05;;;3.20;99.90;;;;;;5027029;28;20053;-36
2023/02/02 06:41:36;;;;;;;7.15;2.75;;;3.10;99.90;;;;;;5030091;28;20045;-35
2023/02/02 06:44:04;;;;;;;8.00;2.47;;;3.20;99.90;;;;;;5029576;28;20413;-36
2023/02/02 06:46:31;;;;;;;9.45;2.28;;;3.20;99.90;;;;;;5030551;28;20041;-36
2023/02/02 06:48:59;;;;;;;3.17;1.83;;;3.20;99.90;;;;;;5029759;28;20037;-35
2023/02/02 06:51:26;;;;;;;4.20;2.83;;;3.10;99.90;;;;;;5026615;28;20376;-35
2023/02/02 06:53:54;;;;;;;5.38;1.80;;;3.10;99.90;;;;;;5023563;28;20060;-35
2023/02/02 06:56:25;;;;;;;4.32;3.05;;;3.20;99.90;;;;;;5029681;28;20117;-35
2023/02/02 06:58:53;;;;;;;1.92;1.80;;;3.30;99.90;;;;;;5029378;28;20057;-35
2023/02/02 07:01:20;;;;;;;3.42;2.08;;;3.40;99.90;;;;;;5029726;28;20049;-35
2023/02/02 07:03:49;;;;;;;4.47;2.65;;;3.40;99.90;;;;;;5029705;28;20068;-35
2023/02/02 07:06:22;;;;;;;3.22;2.60;;;3.40;99.90;;;;;;5028321;28;20045;-35
2023/02/02 07:08:51;;;;;;;3.50;2.50;;;3.50;99.90;;;;;;5025063;28;20052;-37
2023/02/02 07:11:34;;;;;;;1.88;1.77;;;3.60;99.90;;;;;;5025693;28;20056;-35
2023/02/02 07:14:08;;;;;;;4.68;3.00;;;3.50;99.90;;;;;;5026624;28;20042;-35
2023/02/02 07:16:36;;;;;;;3.78;2.38;;;3.60;99.90;;;;;;5026726;28;20050;-35
2023/02/02 07:19:03;;;;;;;5.10;2.45;;;3.60;99.90;;;;;;5028474;28;20238;-35
2023/02/02 07:21:34;;;;;;;2.55;2.33;;;3.60;99.90;;;;;;5029194;28;20064;-35
2023/02/02 07:24:03;;;;;;;;;;;3.60;99.90;;;;;;5029572;28;20517;-35
2023/02/02 07:26:33;;;;;;;2.88;2.22;;;3.60;99.90;;;;;;5028777;28;19932;-35
2023/02/02 07:29:00;;;;;;;10.48;1.83;;;3.60;99.90;;;;;;5024250;28;20049;-35
2023/02/02 07:31:28;;;;;;;4.57;2.22;;;3.60;99.90;;;;;;5030003;28;20051;-35
2023/02/02 07:33:56;;;;;;;6.95;2.25;;;3.50;99.90;;;;;;5028905;28;20417;-35
2023/02/02 07:36:24;;;;;;;1.70;1.60;;;3.50;99.90;;;;;;5029086;28;20049;-35
2023/02/02 07:39:01;;;;;;;3.67;2.17;;;3.60;99.90;;;;;;5028359;28;20057;-35
2023/02/02 07:41:28;;;;;;;7.88;2.38;;;3.60;99.90;;;;;;5028308;28;20611;-35
2023/02/02 07:43:56;;;;;;;4.65;1.98;;;3.60;99.90;;;;;;5028815;28;20049;-35
2023/02/02 07:46:24;;;;;;;3.80;1.80;;;3.60;99.90;;;;;;5029289;28;20533;-35
2023/02/02 07:48:55;;;;;;;2.55;1.92;;;3.70;99.90;;;;;;5028673;28;20052;-35
2023/02/02 07:51:24;;;;;;;2.15;1.95;;;3.60;99.90;;;;;;5029200;28;20061;-35
2023/02/02 07:53:53;;;;;;;2.38;2.17;;;3.60;99.90;;;;;;5026496;28;20049;-34
2023/02/02 07:56:24;;;;;;;5.07;2.42;;;3.60;99.90;;;;;;5028233;28;20497;-35
2023/02/02 07:58:53;;;;;;;3.55;1.98;;;3.60;99.90;;;;;;5029297;28;20072;-35
2023/02/02 08:01:22;;;;;;;4.88;2.83;;;3.60;99.90;;;;;;5027844;28;20536;-35
2023/02/02 08:03:50;;;;;;;5.03;2.00;;;3.50;99.90;;;;;;5028907;28;20414;-36
2023/02/02 08:06:35;;;;;;;6.28;2.25;;;3.50;99.90;;;;;;5028417;28;20045;-35
2023/02/02 08:09:06;;;;;;;4.10;2.50;;;3.50;99.90;;;;;;5024838;28;20045;-35
2023/02/02 08:11:35;;;;;;;9.30;2.95;;;3.50;99.90;;;;;;5028781;28;20049;-35
2023/02/02 08:14:04;;;;;;;6.85;2.58;;;3.50;99.90;;;;;;5028615;28;20049;-35
2023/02/02 08:16:32;;;;;;;5.18;2.22;;;3.50;99.90;;;;;;5028433;28;20053;-36
2023/02/02 08:19:00;;;;;;;3.53;1.90;;;3.50;99.90;;;;;;5027998;28;20049;-36
2023/02/02 08:21:28;;;;;;;3.20;2.00;;;3.50;99.90;;;;;;5027691;28;20510;-36
2023/02/02 08:23:56;;;;;;;6.63;2.83;;;3.50;99.90;;;;;;5026458;28;20068;-36
2023/02/02 08:26:26;;;;;;;3.63;2.22;;;3.50;99.90;;;;;;5027005;28;20069;-35
2023/02/02 08:28:56;;;;;;;4.35;2.92;;;3.50;99.90;;;;;;5028700;28;20045;-37
2023/02/02 08:31:30;;;;;;;5.63;2.20;;;3.50;99.90;;;;;;5028264;28;20524;-37
2023/02/02 08:33:57;;;;;;;3.42;3.13;;;3.50;99.90;;;;;;5023592;28;20509;-36
2023/02/02 08:36:27;;;;;;;5.65;2.22;;;3.50;99.90;;;;;;5027841;28;20050;-36
2023/02/02 08:38:54;;;;;;;4.32;2.45;;;3.50;99.90;;;;;;5027374;28;20354;-37
2023/02/02 08:41:23;;;;;;;3.58;1.88;;;3.50;99.90;;;;;;5027595;28;20615;-36
2023/02/02 08:43:50;;;;;;;2.55;2.35;;;3.50;99.90;;;;;;5027501;28;20092;-35
2023/02/02 08:46:19;;;;;;;5.38;3.45;;;3.60;99.90;;;;;;5027419;28;20045;-35
2023/02/02 08:48:48;;;;;;;2.95;2.75;;;3.60;99.90;;;;;;5024567;28;20699;-35
2023/02/02 08:51:17;;;;;;;3.63;2.30;;;3.60;99.90;;;;;;5022416;28;20057;-36
2023/02/02 08:53:45;;;;;;;2.13;1.85;;;3.60;99.90;;;;;;5020051;28;20056;-35
2023/02/02 08:56:19;;;;;;;6.05;2.20;;;3.60;99.90;;;;;;5023100;28;20542;-35
2023/02/02 08:58:57;;;;;;;5.90;2.33;;;3.70;99.90;;;;;;5027577;28;20053;-35
2023/02/02 09:01:31;;;;;;;4.25;2.50;;;3.70;99.90;;;;;;5021969;28;20060;-35
2023/02/02 09:04:07;;;;;;;5.25;2.33;;;3.70;99.90;;;;;;5023505;28;20057;-35
2023/02/02 09:06:36;;;;;;;3.28;2.13;;;3.70;99.90;;;;;;5025028;28;20091;-35
2023/02/02 09:09:07;;;;;;;4.43;2.08;;;3.60;99.90;;;;;;5025393;28;20052;-34
2023/02/02 09:11:34;;;;;;;3.20;2.40;;;3.60;99.90;;;;;;5027824;28;20041;-36
2023/02/02 09:14:05;;;;;;;3.58;2.83;;;3.60;99.90;;;;;;5028228;28;20409;-36
2023/02/02 09:16:34;;;;;;;1.92;1.80;;;3.70;99.90;;;;;;5028096;28;20799;-36
2023/02/02 09:19:02;;;;;;;2.40;2.20;;;3.60;99.90;;;;;;5027140;28;20509;-37
2023/02/02 09:21:35;;;;;;;5.35;2.70;;;3.60;99.90;;;;;;5026884;28;20045;-35
2023/02/02 09:24:08;;;;;;;2.65;2.25;;;3.60;99.90;;;;;;5025813;28;20057;-36
2023/02/02 09:26:37;;;;;;;2.13;1.77;;;3.60;99.90;;;;;;5027892;28;20053;-38
2023/02/02 09:29:07;;;;;;;3.38;2.75;;;3.60;99.90;;;;;;5027359;28;20041;-35
2023/02/02 09:31:36;;;;;;;3.78;3.03;;;3.60;99.90;;;;;;5027590;28;20052;-37
2023/02/02 09:34:06;;;;;;;1.80;1.70;;;3.60;99.90;;;;;;5025276;28;20413;-35
2023/02/02 09:36:35;;;;;;;8.30;2.30;;;3.70;99.90;;;;;;5027534;28;20049;-35
2023/02/02 09:39:04;;;;;;;3.25;2.53;;;3.70;99.90;;;;;;5026860;28;20057;-35
2023/02/02 09:41:34;;;;;;;1.63;1.52;;;3.70;99.90;;;;;;5025885;28;20060;-35
2023/02/02 09:44:26;;;;;;;6.35;2.70;;;3.70;99.90;;;;;;5027339;28;20406;-36
2023/02/02 09:47:12;;;;;;;;;;;3.70;99.90;;;;;;5024806;28;20452;-36
2023/02/02 09:50:01;;;;;;;2.30;2.10;;;3.70;99.90;;;;;;5026630;28;19932;-35
2023/02/02 09:52:43;;;;;;;2.10;2.00;;;3.60;99.90;;;;;;5026265;28;20068;-35
2023/02/02 09:55:46;;;;;;;1.98;1.88;;;3.60;99.90;;;;;;5025547;28;20072;-35
2023/02/02 09:58:38;;;;;;;4.70;2.40;;;3.70;99.90;;;;;;5026132;28;20053;-35
2023/02/02 10:01:20;;;;;;;4.00;1.90;;;3.70;99.90;;;;;;5024324;28;20048;-36
2023/02/02 10:04:10;;;;;;;4.65;2.35;;;3.80;99.90;;;;;;5026549;28;20053;-35
2023/02/02 10:06:39;;;;;;;7.25;2.45;;;3.80;99.90;;;;;;5026772;28;20053;-35
2023/02/02 10:09:23;;;;;;;6.93;2.28;;;3.70;99.90;;;;;;5029126;28;20041;-35
2023/02/02 10:12:09;;;;;;;4.07;2.38;;;3.80;99.90;;;;;;5031482;28;20049;-35
2023/02/02 10:15:00;;;;;;;3.30;2.80;;;3.80;99.90;;;;;;5043889;28;20046;-35
2023/02/02 10:17:53;;;;;;;5.25;2.63;;;3.80;99.90;;;;;;5026251;28;20042;-36
2023/02/02 10:20:27;;;;;;;2.58;2.38;;;3.80;99.90;;;;;;5026733;28;20505;-36
2023/02/02 10:22:58;;;;;;;11.95;3.05;;;3.90;99.90;;;;;;5028935;28;20163;-36
2023/02/02 10:25:27;;;;;;;1.90;1.80;;;3.90;99.90;;;;;;5027143;28;20049;-35
2023/02/02 10:28:17;;;;;;;2.70;2.50;;;3.90;99.90;;;;;;5031268;28;20576;-36
2023/02/02 10:30:49;;;;;;;12.48;1.83;;;3.90;99.90;;;;;;5026114;28;20053;-35
2023/02/02 10:33:49;;;;;;;2.33;1.55;;;4.00;99.90;;;;;;5025644;28;20053;-35
2023/02/02 10:36:42;;;;;;;13.68;4.25;;;4.00;99.90;;;;;;5027154;28;20053;-35
2023/02/02 10:39:33;;;;;;;3.65;2.75;;;4.00;99.90;;;;;;5036450;28;20497;-36
2023/02/02 10:42:10;;;;;;;2.83;1.95;;;4.10;99.90;;;;;;5046381;28;20048;-35
2023/02/02 10:44:47;;;;;;;2.30;1.92;;;4.10;99.90;;;;;;5040769;28;20052;-35
2023/02/02 10:47:23;;;;;;;4.22;2.28;;;4.10;99.90;;;;;;5050030;28;20061;-36
2023/02/02 10:50:26;;;;;;;5.18;2.90;;;4.10;99.90;;;;;;5048376;28;20049;-35
2023/02/02 10:53:00;;;;;;;1.65;1.55;;;4.10;99.90;;;;;;5014464;28;20045;-36
2023/02/02 10:55:34;;;;;;;3.95;3.08;;;4.10;99.90;;;;;;5043827;28;20505;-36
2023/02/02 10:58:11;;;;;;;2.05;1.92;;;4.10;99.90;;;;;;5050044;28;20411;-35
2023/02/02 11:00:49;;;;;;;4.47;2.83;;;4.10;99.90;;;;;;5048955;28;20041;-34
2023/02/02 11:03:20;;;;;;;3.15;2.40;;;4.10;99.90;;;;;;5049345;28;20045;-36
2023/02/02 11:08:42;;;;;;;5.28;2.33;;;4.10;99.90;;;;;;5045522;28;20615;-35
2023/02/02 11:11:37;;;;;;;2.35;1.33;;;4.10;99.90;;;;;;5031998;28;20060;-35
2023/02/02 11:14:08;;;;;;;5.72;2.00;;;4.10;99.90;;;;;;5039584;28;20045;-35
2023/02/02 11:16:41;;;;;;;3.22;2.20;;;4.20;99.90;;;;;;5021454;28;20064;-35
2023/02/02 11:19:16;;;;;;;4.65;2.45;;;4.20;99.90;;;;;;5044051;28;20636;-35
2023/02/02 11:21:47;;;;;;;3.67;2.10;;;4.30;99.90;;;;;;5043006;28;20049;-35
2023/02/02 11:24:23;;;;;;;3.38;1.98;;;4.30;99.90;;;;;;5041355;28;20569;-36
2023/02/02 11:27:00;;;;;;;5.15;2.55;;;4.30;99.90;;;;;;5042852;28;20461;-36
2023/02/02 11:29:28;;;;;;;6.68;2.08;;;4.30;99.90;;;;;;5043864;28;20222;-36
2023/02/02 11:31:56;;;;;;;4.45;1.98;;;4.30;99.90;;;;;;5041694;28;20079;-37
2023/02/02 11:34:26;;;;;;;2.83;1.80;;;4.30;99.90;;;;;;5043907;28;20493;-36
2023/02/02 11:37:22;;;;;;;2.33;2.13;;;4.40;99.90;;;;;;5041740;28;20041;-36
2023/02/02 11:39:49;;;;;;;1.42;1.33;;;4.40;99.90;;;;;;5038131;28;20071;-35
2023/02/02 11:42:23;;;;;;;3.47;1.98;;;4.40;99.90;;;;;;5043098;28;20468;-35
2023/02/02 11:44:56;;;;;;;3.47;2.00;;;4.40;99.90;;;;;;5041581;28;20050;-36
2023/02/02 11:47:31;;;;;;;2.90;1.33;;;4.40;99.90;;;;;;5041356;28;20053;-35
2023/02/02 11:50:02;;;;;;;3.10;2.25;;;4.40;99.90;;;;;;5041857;28;20061;-36
2023/02/02 11:52:32;;;;;;;2.50;2.40;;;4.40;99.90;;;;;;5042926;28;20048;-35
2023/02/02 11:55:08;;;;;;;1.50;1.50;;;4.30;99.90;;;;;;5041181;28;20524;-36
2023/02/02 11:57:36;;;;;;;2.95;1.88;;;4.30;99.90;;;;;;5037923;28;20596;-34
2023/02/02 12:00:09;;;;;;;2.45;1.52;;;4.30;99.90;;;;;;5041645;28;20489;-35
2023/02/02 12:02:44;;;;;;;1.77;1.52;;;4.30;99.90;;;;;;5043250;28;20056;-36
2023/02/02 12:05:20;;;;;;;3.13;2.38;;;4.30;99.90;;;;;;5042336;28;20049;-36
2023/02/02 12:07:48;;;;;;;4.95;2.25;;;4.10;99.90;;;;;;5041725;28;20402;-35
2023/02/02 12:10:16;;;;;;;2.72;2.33;;;4.10;99.90;;;;;;5041596;28;20208;-36
2023/02/02 12:13:06;;;;;;;4.32;2.08;;;4.00;99.90;;;;;;5043383;28;20053;-35
2023/02/02 12:16:01;;;;;;;3.47;3.17;;;3.90;99.90;;;;;;5045680;28;20060;-36
2023/02/02 12:18:54;;;;;;;2.47;2.28;;;3.90;99.90;;;;;;5037995;28;20512;-36
2023/02/02 12:21:25;;;;;;;4.40;1.98;;;3.80;99.90;;;;;;5039792;28;20064;-36
2023/02/02 12:24:23;;;;;;;2.70;2.13;;;3.90;99.90;;;;;;5041967;28;20049;-36
2023/02/02 12:27:05;;;;;;;2.83;2.38;;;3.80;99.90;;;;;;5024059;28;20064;-36
2023/02/02 12:30:04;;;;;;;3.70;2.40;;;3.80;99.90;;;;;;5041342;28;20061;-36
2023/02/02 12:32:56;;;;;;;7.00;2.83;;;3.80;99.90;;;;;;5042688;28;20612;-37
2023/02/02 12:35:30;;;;;;;2.90;2.65;;;3.60;99.90;;;;;;5044476;28;20124;-36
2023/02/02 12:38:06;;;;;;;1.85;1.75;;;3.60;99.90;;;;;;5041398;28;20068;-37
2023/02/02 12:40:56;;;;;;;2.78;1.52;;;3.70;99.90;;;;;;5039545;28;20570;-37
2023/02/02 12:43:29;;;;;;;6.03;2.75;;;3.80;99.90;;;;;;5042609;28;20057;-36
2023/02/02 12:46:19;;;;;;;4.80;2.00;;;3.80;99.90;;;;;;5042084;28;20069;-37
2023/02/02 12:49:07;;;;;;;8.43;2.60;;;3.80;99.90;;;;;;5039594;28;20535;-36
2023/02/02 12:52:18;;;;;;;2.08;1.92;;;3.80;99.90;;;;;;5032611;28;20061;-36
2023/02/02 12:54:58;;;;;;;5.07;2.53;;;3.80;99.90;;;;;;4990253;28;20048;-37
2023/02/02 12:57:49;;;;;;;7.20;3.05;;;3.80;99.90;;;;;;5048431;28;20488;-36
2023/02/02 13:00:33;;;;;;;2.00;1.67;;;3.70;99.90;;;;;;5042819;28;20489;-36
2023/02/02 13:03:27;;;;;;;2.15;2.05;;;3.70;99.90;;;;;;5045494;28;20433;-41
2023/02/02 13:06:16;;;;;;;2.28;2.08;;;3.60;99.90;;;;;;5043222;28;20048;-36
2023/02/02 13:08:54;;;;;;;2.20;2.10;;;3.60;99.90;;;;;;5041363;28;20047;-36
2023/02/02 13:11:43;;;;;;;1.83;1.73;;;3.60;99.90;;;;;;5039894;28;20056;-36
2023/02/02 13:14:33;;;;;;;2.58;2.38;;;3.50;99.90;;;;;;5038373;28;20043;-36
2023/02/02 13:17:08;;;;;;;1.88;1.77;;;3.50;99.90;;;;;;5040363;28;20044;-35
2023/02/02 13:19:41;;;;;;;2.60;2.40;;;3.40;99.90;;;;;;5042767;28;20044;-37
2023/02/02 13:22:16;;;;;;;1.83;1.73;;;3.40;99.90;;;;;;5042745;28;20049;-36
2023/02/02 13:24:46;;;;;;;2.72;2.53;;;3.40;99.90;;;;;;5041588;28;20078;-36
2023/02/02 13:27:18;;;;;;;3.90;2.37;;;3.40;99.90;;;;;;5042745;28;20802;-36
2023/02/02 13:29:51;;;;;;;2.17;2.05;;;3.40;99.90;;;;;;5041140;28;20437;-36
2023/02/02 13:32:41;;;;;;;2.30;2.05;;;3.40;99.90;;;;;;5041482;28;20552;-37
2023/02/02 13:35:30;;;;;;;9.52;1.80;;;3.40;99.90;;;;;;5042772;28;20049;-36
2023/02/02 13:38:10;;;;;;;2.53;2.40;;;3.30;99.90;;;;;;5038163;28;20052;-36
2023/02/02 13:40:40;;;;;;;2.17;2.08;;;3.30;99.90;;;;;;5040336;28;20051;-37
2023/02/02 13:43:16;;;;;;;5.90;2.22;;;3.30;99.90;;;;;;5043325;28;20528;-37